TimeMDT,TemperatureF,Dew PointF,Humidity,Sea Level PressureIn,VisibilityMPH,Wind Direction,Wind SpeedMPH,Gust SpeedMPH,PrecipitationIn,Events,Conditions,WindDirDegrees,DateUTC
12:55 AM,34.0,30.9,89,30.11,10.0,SSE,4.6,-,N/A,,Scattered Clouds,150,2014-03-15 06:55:00
1:55 AM,34.0,30.0,85,30.14,10.0,SE,4.6,-,N/A,,Mostly Cloudy,140,2014-03-15 07:55:00
2:55 AM,34.0,30.9,89,30.18,10.0,SW,6.9,-,N/A,,Overcast,220,2014-03-15 08:55:00
3:55 AM,35.1,30.9,85,30.20,10.0,SSE,4.6,-,N/A,,Overcast,150,2014-03-15 09:55:00
4:55 AM,34.0,30.9,89,30.24,10.0,SSW,4.6,-,N/A,,Overcast,210,2014-03-15 10:55:00
5:55 AM,34.0,30.9,89,30.27,10.0,Calm,Calm,-,N/A,,Overcast,0,2014-03-15 11:55:00
6:55 AM,34.0,28.0,79,30.30,10.0,South,3.5,-,N/A,,Mostly Cloudy,170,2014-03-15 12:55:00
7:55 AM,30.9,28.0,89,30.32,10.0,Calm,Calm,-,N/A,,Scattered Clouds,0,2014-03-15 13:55:00
8:55 AM,30.9,28.0,89,30.36,10.0,Calm,Calm,-,N/A,,Partly Cloudy,0,2014-03-15 14:55:00
9:55 AM,37.0,30.9,79,30.38,10.0,SSE,3.5,-,N/A,,Partly Cloudy,150,2014-03-15 15:55:00
10:55 AM,41.0,30.9,67,30.37,10.0,SSE,9.2,-,N/A,,Clear,160,2014-03-15 16:55:00
11:55 AM,44.1,30.0,58,30.37,10.0,South,10.4,-,N/A,,Clear,170,2014-03-15 17:55:00
12:55 PM,45.0,30.0,56,30.38,10.0,South,5.8,-,N/A,,Partly Cloudy,170,2014-03-15 18:55:00
1:55 PM,46.9,27.0,46,30.37,10.0,SW,11.5,-,N/A,,Scattered Clouds,220,2014-03-15 19:55:00
2:55 PM,46.0,27.0,47,30.39,10.0,West,9.2,-,N/A,,Overcast,260,2014-03-15 20:55:00
3:55 PM,43.0,30.0,60,30.42,10.0,SW,8.1,-,0.00,,Overcast,220,2014-03-15 21:55:00
4:55 PM,42.1,28.0,58,30.40,10.0,South,4.6,-,N/A,,Overcast,180,2014-03-15 22:55:00
5:55 PM,41.0,30.9,67,30.39,10.0,SE,11.5,-,N/A,,Overcast,140,2014-03-15 23:55:00
6:55 PM,39.9,30.9,70,30.38,10.0,South,8.1,-,N/A,,Overcast,170,2014-03-16 00:55:00
7:55 PM,39.0,30.0,70,30.37,10.0,South,6.9,-,N/A,,Overcast,180,2014-03-16 01:55:00
8:55 PM,35.1,28.9,78,30.37,10.0,SSW,5.8,-,N/A,,Mostly Cloudy,200,2014-03-16 02:55:00
9:55 PM,34.0,28.9,82,30.34,10.0,West,5.8,-,N/A,,Clear,270,2014-03-16 03:55:00
10:55 PM,32.0,28.0,85,30.33,10.0,Calm,Calm,-,N/A,,Scattered Clouds,0,2014-03-16 04:55:00
11:55 PM,30.0,27.0,88,30.30,10.0,Calm,Calm,-,N/A,,Partly Cloudy,0,2014-03-16 05:55:00